createdAt,value
2023-05-23T00:02:18.150Z,53.54
2023-05-23T00:04:45.509Z,53.50
2023-05-23T00:07:12.480Z,53.24
2023-05-23T00:09:39.422Z,53.58
2023-05-23T00:12:07.003Z,53.37
2023-05-23T00:14:35.351Z,53.91
2023-05-23T00:17:02.584Z,53.95
2023-05-23T00:19:30.927Z,53.30
2023-05-23T00:21:58.578Z,53.31
2023-05-23T00:24:25.844Z,53.88
2023-05-23T00:26:52.830Z,53.72
2023-05-23T00:29:19.954Z,53.63
2023-05-23T00:31:47.329Z,53.85
2023-05-23T00:34:15.566Z,53.36
2023-05-23T00:36:44.344Z,53.77
2023-05-23T00:39:19.370Z,53.41
2023-05-23T00:41:51.115Z,53.73
2023-05-23T00:44:20.216Z,53.94
2023-05-23T00:46:53.476Z,53.77
2023-05-23T00:49:21.304Z,53.86
2023-05-23T00:51:50.617Z,53.35
2023-05-23T00:54:24.599Z,53.28
2023-05-23T00:56:51.768Z,53.39
2023-05-23T00:59:21.187Z,53.65
2023-05-23T01:01:51.232Z,52.98
2023-05-23T01:04:21.084Z,53.02
2023-05-23T01:06:49.554Z,53.26
2023-05-23T01:09:18.754Z,53.42
2023-05-23T01:11:57.637Z,53.17
2023-05-23T01:14:35.945Z,53.52
2023-05-23T01:17:13.562Z,53.02
2023-05-23T01:20:00.387Z,53.21
2023-05-23T01:23:12.692Z,53.37
2023-05-23T01:26:03.346Z,53.91
2023-05-23T01:28:37.843Z,53.63
2023-05-23T01:31:10.130Z,53.92
2023-05-23T01:33:40.124Z,53.49
2023-05-23T01:36:09.025Z,53.41
2023-05-23T01:38:36.012Z,53.94
2023-05-23T01:41:02.994Z,54.12
2023-05-23T01:43:31.498Z,53.84
2023-05-23T01:46:01.518Z,53.69
2023-05-23T01:48:30.782Z,54.35
2023-05-23T01:50:58.929Z,54.24
2023-05-23T01:53:27.376Z,54.36
2023-05-23T01:55:55.705Z,53.83
2023-05-23T01:58:22.736Z,54.46
2023-05-23T02:00:51.098Z,54.48
2023-05-23T02:03:18.695Z,54.24
2023-05-23T02:05:45.745Z,54.46
2023-05-23T02:08:12.698Z,54.46
2023-05-23T02:10:39.727Z,54.21
2023-05-23T02:13:06.682Z,54.35
2023-05-23T02:15:33.638Z,53.88
2023-05-23T02:18:03.229Z,54.38
2023-05-23T02:20:30.284Z,54.01
2023-05-23T02:22:57.225Z,54.39
2023-05-23T02:25:24.138Z,54.22
2023-05-23T02:27:51.057Z,53.94
2023-05-23T02:30:18.018Z,54.42
2023-05-23T02:32:45.097Z,54.09
2023-05-23T02:35:13.770Z,54.18
2023-05-23T02:37:40.772Z,54.67
2023-05-23T02:40:09.232Z,54.24
2023-05-23T02:42:36.542Z,54.00
2023-05-23T02:45:04.115Z,54.14
2023-05-23T02:47:31.146Z,54.33
2023-05-23T02:49:58.047Z,54.37
2023-05-23T02:52:26.744Z,54.41
2023-05-23T02:54:53.724Z,54.96
2023-05-23T02:57:20.723Z,55.03
2023-05-23T02:59:47.670Z,54.49
2023-05-23T03:02:14.730Z,54.55
2023-05-23T03:04:41.880Z,54.39
2023-05-23T03:07:20.400Z,54.82
2023-05-23T03:09:56.158Z,54.66
2023-05-23T03:12:23.264Z,55.24
2023-05-23T03:14:50.339Z,55.02
2023-05-23T03:17:17.384Z,55.14
2023-05-23T03:19:44.443Z,55.63
2023-05-23T03:22:11.480Z,55.22
2023-05-23T03:24:38.493Z,56.05
2023-05-23T03:27:06.971Z,55.56
2023-05-23T03:29:34.065Z,56.40
2023-05-23T03:32:01.134Z,56.59
2023-05-23T03:34:28.202Z,56.39
2023-05-23T03:36:55.287Z,56.35
2023-05-23T03:39:23.397Z,56.66
2023-05-23T03:41:51.257Z,56.51
2023-05-23T03:44:19.834Z,57.36
2023-05-23T03:46:46.919Z,57.15
2023-05-23T03:49:14.072Z,57.02
2023-05-23T03:51:41.184Z,57.64
2023-05-23T03:54:08.269Z,57.16
2023-05-23T03:56:35.374Z,57.77
2023-05-23T03:59:02.381Z,57.75
2023-05-23T04:01:30.797Z,57.40
2023-05-23T04:03:58.110Z,58.01
2023-05-23T04:06:25.511Z,58.28
2023-05-23T04:08:52.567Z,58.01
2023-05-23T04:11:19.635Z,58.05
2023-05-23T04:13:47.177Z,58.68
2023-05-23T04:16:14.339Z,58.71
2023-05-23T04:18:43.518Z,58.28
2023-05-23T04:21:10.739Z,58.34
2023-05-23T04:23:38.406Z,58.92
2023-05-23T04:26:05.802Z,58.54
2023-05-23T04:28:34.227Z,59.22
2023-05-23T04:31:02.684Z,58.80
2023-05-23T04:33:30.618Z,58.67
2023-05-23T04:35:58.906Z,58.85
2023-05-23T04:38:25.850Z,59.15
2023-05-23T04:40:54.040Z,59.42
2023-05-23T04:43:21.815Z,59.16
2023-05-23T04:45:54.248Z,59.15
2023-05-23T04:48:24.025Z,59.29
2023-05-23T04:50:52.500Z,59.26
2023-05-23T04:53:20.827Z,59.65
2023-05-23T04:55:48.185Z,59.73
2023-05-23T04:58:15.426Z,59.56
2023-05-23T05:00:42.541Z,59.37
2023-05-23T05:03:09.817Z,59.36
2023-05-23T05:05:37.225Z,59.45
2023-05-23T05:08:04.326Z,59.32
2023-05-23T05:10:32.661Z,59.27
2023-05-23T05:12:59.563Z,59.05
2023-05-23T05:15:26.459Z,58.67
2023-05-23T05:17:53.711Z,58.66
2023-05-23T05:20:21.740Z,58.23
2023-05-23T05:22:57.486Z,58.63
2023-05-23T05:25:24.894Z,58.74
2023-05-23T05:27:53.538Z,58.21
2023-05-23T05:30:20.626Z,58.56
2023-05-23T05:32:47.756Z,58.27
2023-05-23T05:35:14.853Z,58.15
2023-05-23T05:37:41.876Z,57.86
2023-05-23T05:40:09.941Z,58.30
2023-05-23T05:42:36.948Z,57.73
2023-05-23T05:45:07.102Z,58.11
2023-05-23T05:47:34.047Z,58.17
2023-05-23T05:50:01.676Z,57.93
2023-05-23T05:52:28.614Z,58.64
2023-05-23T05:54:57.645Z,58.31
2023-05-23T05:57:24.719Z,57.59
2023-05-23T05:59:52.375Z,57.54
2023-05-23T06:02:20.924Z,57.64
2023-05-23T06:04:47.951Z,57.62
2023-05-23T06:07:14.879Z,58.09
2023-05-23T06:09:42.035Z,58.12
2023-05-23T06:12:09.064Z,58.28
2023-05-23T06:14:36.044Z,57.44
2023-05-23T06:17:03.750Z,57.56
2023-05-23T06:19:32.124Z,56.89
2023-05-23T06:21:59.119Z,57.52
2023-05-23T06:24:26.023Z,56.80
2023-05-23T06:26:53.036Z,57.44
2023-05-23T06:29:20.031Z,57.27
2023-05-23T06:31:47.130Z,57.29
2023-05-23T06:34:14.060Z,57.00
2023-05-23T06:36:42.937Z,57.66
2023-05-23T06:39:10.057Z,57.18
2023-05-23T06:41:37.040Z,57.57
2023-05-23T06:44:04.057Z,57.79
2023-05-23T06:46:31.490Z,57.53
2023-05-23T06:49:06.938Z,57.50
2023-05-23T06:51:42.379Z,57.51
2023-05-23T06:54:10.368Z,57.07
2023-05-23T06:56:37.262Z,57.30
2023-05-23T06:59:04.209Z,57.32
2023-05-23T07:01:31.239Z,56.92
2023-05-23T07:03:58.251Z,57.07
2023-05-23T07:06:27.413Z,57.06
2023-05-23T07:08:55.752Z,57.30
2023-05-23T07:11:23.044Z,57.19
2023-05-23T07:13:50.159Z,56.85
2023-05-23T07:16:17.219Z,57.12
2023-05-23T07:18:44.205Z,56.78
2023-05-23T07:21:11.222Z,56.70
2023-05-23T07:23:38.260Z,56.78
2023-05-23T07:26:09.566Z,56.16
2023-05-23T07:28:37.491Z,56.44
2023-05-23T07:31:04.894Z,56.38
2023-05-23T07:33:34.465Z,56.15
2023-05-23T07:36:01.592Z,55.67
2023-05-23T07:38:28.651Z,55.78
2023-05-23T07:41:09.906Z,56.13
2023-05-23T07:43:39.730Z,56.04
2023-05-23T07:46:07.134Z,55.62
2023-05-23T07:48:34.072Z,55.50
2023-05-23T07:51:01.071Z,55.93
2023-05-23T07:53:28.033Z,55.65
2023-05-23T07:55:54.967Z,55.43
2023-05-23T07:58:23.077Z,55.52
2023-05-23T08:00:52.938Z,55.97
2023-05-23T08:03:20.626Z,56.15
2023-05-23T08:05:47.806Z,56.54
2023-05-23T08:08:15.632Z,56.42
2023-05-23T08:11:01.880Z,56.27
2023-05-23T08:13:45.469Z,56.50
2023-05-23T08:16:15.189Z,56.84
2023-05-23T08:18:43.465Z,57.34
2023-05-23T08:21:11.363Z,56.91
2023-05-23T08:23:39.428Z,56.65
2023-05-23T08:26:07.616Z,56.50
2023-05-23T08:28:35.892Z,56.86
2023-05-23T08:31:04.060Z,57.15
2023-05-23T08:33:33.591Z,56.87
2023-05-23T08:36:01.176Z,56.76
2023-05-23T08:38:28.618Z,56.74
2023-05-23T08:41:16.861Z,57.24
2023-05-23T08:44:03.098Z,56.73
2023-05-23T08:46:33.987Z,56.24
2023-05-23T08:49:03.664Z,56.22
2023-05-23T08:51:43.964Z,55.86
2023-05-23T08:54:15.220Z,55.38
2023-05-23T08:56:49.797Z,55.94
2023-05-23T08:59:24.523Z,55.42
2023-05-23T09:01:56.869Z,55.16
2023-05-23T09:04:25.171Z,54.16
2023-05-23T09:06:52.314Z,54.13
2023-05-23T09:09:19.549Z,53.52
2023-05-23T09:11:47.177Z,53.91
2023-05-23T09:14:14.689Z,54.30
2023-05-23T09:16:47.672Z,53.49
2023-05-23T09:19:15.858Z,53.49
2023-05-23T09:21:45.409Z,53.43
2023-05-23T09:24:12.868Z,53.67
2023-05-23T09:26:39.846Z,53.15
2023-05-23T09:29:07.593Z,53.22
2023-05-23T09:31:34.619Z,53.31
2023-05-23T09:34:02.177Z,52.94
2023-05-23T09:36:32.478Z,52.62
2023-05-23T09:39:04.500Z,52.75
2023-05-23T09:41:33.252Z,52.31
2023-05-23T09:44:06.431Z,51.66
2023-05-23T09:46:37.449Z,51.15
2023-05-23T09:49:17.414Z,50.82
2023-05-23T09:51:57.285Z,49.77
2023-05-23T09:54:25.934Z,48.91
2023-05-23T09:56:56.161Z,49.13
2023-05-23T09:59:26.386Z,48.07
2023-05-23T10:01:57.465Z,48.55
2023-05-23T10:04:31.427Z,47.88
2023-05-23T10:07:07.875Z,47.49
2023-05-23T10:09:39.895Z,46.06
2023-05-23T10:12:45.900Z,45.88
2023-05-23T10:15:17.180Z,46.50
2023-05-23T10:18:06.374Z,46.17
2023-05-23T10:20:35.955Z,46.35
2023-05-23T10:23:05.425Z,44.44
2023-05-23T10:25:36.922Z,44.48
2023-05-23T10:28:05.459Z,43.97
2023-05-23T10:30:34.168Z,44.47
2023-05-23T10:33:03.278Z,44.06
2023-05-23T10:35:48.001Z,43.42
2023-05-23T10:38:32.828Z,43.46
2023-05-23T10:41:11.718Z,43.46
2023-05-23T10:43:48.907Z,43.31
2023-05-23T10:46:16.263Z,42.76
2023-05-23T10:48:45.261Z,42.36
2023-05-23T10:51:14.644Z,41.67
2023-05-23T10:53:43.998Z,40.79
2023-05-23T10:56:23.436Z,40.93
2023-05-23T10:58:53.989Z,40.33
2023-05-23T11:01:21.384Z,39.93
2023-05-23T11:03:55.188Z,39.33
2023-05-23T11:06:38.472Z,39.78
2023-05-23T11:09:10.888Z,38.93
2023-05-23T11:12:03.488Z,39.34
2023-05-23T11:14:54.875Z,38.54
2023-05-23T11:17:33.374Z,38.14
2023-05-23T11:20:07.686Z,38.72
2023-05-23T11:22:36.306Z,38.62
2023-05-23T11:25:08.902Z,38.85
2023-05-23T11:27:39.333Z,39.19
2023-05-23T11:30:09.912Z,38.61
2023-05-23T11:32:37.652Z,38.81
2023-05-23T11:35:08.117Z,38.64
2023-05-23T11:37:37.712Z,38.36
2023-05-23T11:40:27.805Z,38.98
2023-05-23T11:42:56.863Z,38.67
2023-05-23T11:45:24.698Z,38.66
2023-05-23T11:47:52.358Z,38.92
2023-05-23T11:50:22.722Z,38.88
2023-05-23T11:52:53.298Z,38.41
2023-05-23T11:55:21.597Z,38.60
2023-05-23T11:57:49.306Z,38.80
2023-05-23T12:00:19.465Z,37.04
2023-05-23T12:02:48.807Z,37.54
2023-05-23T12:05:16.305Z,37.33
2023-05-23T12:07:45.116Z,37.67
2023-05-23T12:10:12.947Z,38.08
2023-05-23T12:12:42.665Z,37.39
2023-05-23T12:15:11.759Z,37.31
2023-05-23T12:17:46.064Z,36.66
2023-05-23T12:20:14.103Z,37.07
2023-05-23T12:22:42.043Z,36.44
2023-05-23T12:25:12.640Z,36.48
2023-05-23T12:27:43.804Z,36.75
2023-05-23T12:30:14.686Z,36.07
2023-05-23T12:32:46.513Z,35.72
2023-05-23T12:35:15.865Z,35.39
2023-05-23T12:37:45.910Z,35.04
2023-05-23T12:40:15.802Z,35.52
2023-05-23T12:42:51.370Z,35.93
2023-05-23T12:45:18.595Z,36.82
2023-05-23T12:47:46.884Z,35.78
2023-05-23T12:50:13.917Z,35.71
2023-05-23T12:52:41.408Z,35.20
2023-05-23T12:55:09.688Z,35.04
2023-05-23T12:57:37.075Z,35.66
2023-05-23T13:00:05.491Z,34.41
2023-05-23T13:02:33.545Z,34.85
2023-05-23T13:05:01.866Z,34.18
2023-05-23T13:07:29.367Z,34.51
2023-05-23T13:09:56.975Z,34.59
2023-05-23T13:12:24.675Z,34.70
2023-05-23T13:14:52.328Z,34.75
2023-05-23T13:17:19.270Z,34.40
2023-05-23T13:19:47.082Z,34.45
2023-05-23T13:22:15.367Z,34.40
2023-05-23T13:24:43.578Z,34.72
2023-05-23T13:27:10.710Z,35.02
2023-05-23T13:29:37.713Z,35.58
2023-05-23T13:32:05.379Z,36.21
2023-05-23T13:34:32.431Z,36.53
2023-05-23T13:36:59.330Z,35.74
2023-05-23T13:39:27.705Z,35.40
2023-05-23T13:41:54.841Z,35.50
2023-05-23T13:44:21.849Z,35.60
2023-05-23T13:46:48.776Z,35.61
2023-05-23T13:49:16.090Z,35.84
2023-05-23T13:51:44.236Z,35.66
2023-05-23T13:54:11.685Z,36.60
2023-05-23T13:56:40.341Z,36.24
2023-05-23T13:59:07.355Z,36.37
2023-05-23T14:01:34.368Z,36.39
2023-05-23T14:04:01.410Z,35.82
2023-05-23T14:06:28.320Z,36.22
2023-05-23T14:08:56.225Z,36.01
2023-05-23T14:11:23.139Z,35.70
2023-05-23T14:13:51.414Z,35.19
2023-05-23T14:16:18.448Z,34.46
2023-05-23T14:18:45.430Z,34.16
2023-05-23T14:21:12.359Z,33.92
2023-05-23T14:23:39.297Z,33.37
2023-05-23T14:26:06.535Z,33.11
2023-05-23T14:28:33.582Z,33.06
2023-05-23T14:31:01.911Z,33.58
2023-05-23T14:33:28.952Z,33.61
2023-05-23T14:35:56.221Z,33.76
2023-05-23T14:38:23.339Z,33.67
2023-05-23T14:40:50.638Z,33.68
2023-05-23T14:43:17.721Z,33.46
2023-05-23T14:45:44.937Z,33.02
2023-05-23T14:48:13.566Z,32.93
2023-05-23T14:50:40.739Z,32.03
2023-05-23T14:53:07.942Z,31.78
2023-05-23T14:55:35.060Z,32.09
2023-05-23T14:58:03.421Z,30.97
2023-05-23T15:00:30.385Z,30.71
2023-05-23T15:02:57.411Z,30.58
2023-05-23T15:05:25.912Z,31.16
2023-05-23T15:07:52.901Z,31.74
2023-05-23T15:10:19.861Z,31.53
2023-05-23T15:12:46.894Z,31.99
2023-05-23T15:15:13.960Z,32.65
2023-05-23T15:17:40.960Z,33.04
2023-05-23T15:20:10.100Z,32.86
2023-05-23T15:22:39.793Z,32.49
2023-05-23T15:25:08.803Z,32.38
2023-05-23T15:27:36.149Z,32.96
2023-05-23T15:30:04.147Z,32.16
2023-05-23T15:32:32.153Z,32.67
2023-05-23T15:34:59.120Z,33.02
2023-05-23T15:37:26.010Z,33.31
2023-05-23T15:39:54.242Z,32.69
2023-05-23T15:42:21.546Z,32.53
2023-05-23T15:44:48.496Z,32.87
2023-05-23T15:47:15.510Z,33.59
2023-05-23T15:49:42.438Z,33.03
2023-05-23T15:52:09.486Z,33.33
2023-05-23T15:54:36.464Z,34.01
2023-05-23T15:57:05.688Z,34.09
2023-05-23T15:59:32.699Z,34.41
2023-05-23T16:01:59.893Z,34.55
2023-05-23T16:04:27.014Z,33.21
2023-05-23T16:06:53.917Z,32.95
2023-05-23T16:09:21.257Z,32.35
2023-05-23T16:11:48.200Z,32.45
2023-05-23T16:14:16.575Z,33.38
2023-05-23T16:16:43.649Z,33.36
2023-05-23T16:19:10.825Z,33.57
2023-05-23T16:21:37.765Z,33.82
2023-05-23T16:24:05.789Z,33.51
2023-05-23T16:26:32.957Z,33.03
2023-05-23T16:28:59.899Z,32.67
2023-05-23T16:31:30.172Z,32.53
2023-05-23T16:33:58.517Z,33.04
2023-05-23T16:36:25.466Z,31.57
2023-05-23T16:38:54.142Z,31.78
2023-05-23T16:41:22.420Z,31.57
2023-05-23T16:43:49.576Z,31.63
2023-05-23T16:46:18.438Z,32.12
2023-05-23T16:48:48.800Z,32.26
2023-05-23T16:51:16.164Z,32.45
2023-05-23T16:53:43.100Z,33.17
2023-05-23T16:56:09.996Z,33.69
2023-05-23T16:58:38.616Z,33.59
2023-05-23T17:01:07.732Z,33.70
2023-05-23T17:03:35.035Z,33.18
2023-05-23T17:06:03.573Z,33.15
2023-05-23T17:08:30.540Z,32.31
2023-05-23T17:10:57.486Z,32.19
2023-05-23T17:13:24.423Z,32.18
2023-05-23T17:15:51.615Z,32.76
2023-05-23T17:18:18.724Z,33.66
2023-05-23T17:20:46.056Z,34.69
2023-05-23T17:23:14.422Z,33.98
2023-05-23T17:25:41.622Z,34.23
2023-05-23T17:28:08.747Z,33.86
2023-05-23T17:30:35.638Z,34.47
2023-05-23T17:33:02.744Z,33.94
2023-05-23T17:35:29.664Z,34.64
2023-05-23T17:38:00.613Z,34.66
2023-05-23T17:40:29.020Z,34.68
2023-05-23T17:42:55.969Z,35.54
2023-05-23T17:45:23.178Z,35.53
2023-05-23T17:47:50.103Z,35.74
2023-05-23T17:50:17.303Z,35.78
2023-05-23T17:52:44.785Z,35.67
2023-05-23T17:55:11.864Z,35.95
2023-05-23T17:57:40.324Z,36.08
2023-05-23T18:00:08.973Z,36.42
2023-05-23T18:02:35.920Z,36.62
2023-05-23T18:05:02.897Z,37.19
2023-05-23T18:07:29.939Z,37.23
2023-05-23T18:09:59.828Z,37.35
2023-05-23T18:12:26.975Z,36.89
2023-05-23T18:14:55.208Z,36.83
2023-05-23T18:17:22.697Z,36.74
2023-05-23T18:19:49.758Z,36.69
2023-05-23T18:22:16.832Z,36.66
2023-05-23T18:24:43.832Z,36.95
2023-05-23T18:27:11.066Z,36.83
2023-05-23T18:29:38.200Z,36.92
2023-05-23T18:32:07.128Z,37.10
2023-05-23T18:34:34.114Z,36.92
2023-05-23T18:37:02.983Z,37.34
2023-05-23T18:39:31.044Z,37.16
2023-05-23T18:41:58.691Z,37.48
2023-05-23T18:44:25.745Z,37.56
2023-05-23T18:46:52.798Z,37.83
2023-05-23T18:49:21.914Z,38.01
2023-05-23T18:51:51.582Z,38.16
2023-05-23T18:54:18.574Z,38.21
2023-05-23T18:56:45.552Z,38.08
2023-05-23T18:59:14.500Z,37.94
2023-05-23T19:01:41.446Z,37.44
2023-05-23T19:04:08.618Z,37.90
2023-05-23T19:06:37.216Z,37.85
2023-05-23T19:09:09.339Z,38.34
2023-05-23T19:11:37.232Z,38.48
2023-05-23T19:14:04.269Z,38.57
2023-05-23T19:16:31.472Z,38.64
2023-05-23T19:18:58.520Z,38.82
2023-05-23T19:21:26.565Z,38.90
2023-05-23T19:23:55.264Z,39.19
2023-05-23T19:26:22.272Z,39.36
2023-05-23T19:28:49.271Z,39.33
2023-05-23T19:31:16.318Z,39.54
2023-05-23T19:33:43.365Z,39.73
2023-05-23T19:36:10.406Z,39.76
2023-05-23T19:38:37.445Z,39.90
2023-05-23T19:41:06.252Z,40.04
2023-05-23T19:43:33.236Z,40.17
2023-05-23T19:46:00.364Z,40.23
2023-05-23T19:48:27.449Z,40.28
2023-05-23T19:50:54.480Z,40.46
2023-05-23T19:53:22.879Z,40.72
2023-05-23T19:55:49.954Z,41.02
2023-05-23T19:58:18.480Z,41.04
2023-05-23T20:00:45.473Z,40.70
2023-05-23T20:03:12.620Z,41.04
2023-05-23T20:05:39.785Z,41.21
2023-05-23T20:08:06.923Z,41.64
2023-05-23T20:10:33.959Z,41.71
2023-05-23T20:13:00.957Z,41.79
2023-05-23T20:15:39.443Z,42.11
2023-05-23T20:18:07.895Z,42.39
2023-05-23T20:20:34.952Z,42.40
2023-05-23T20:23:01.939Z,42.78
2023-05-23T20:25:29.064Z,42.70
2023-05-23T20:27:58.763Z,42.72
2023-05-23T20:30:26.249Z,42.86
2023-05-23T20:32:54.754Z,42.70
2023-05-23T20:35:22.787Z,42.66
2023-05-23T20:37:53.457Z,42.98
2023-05-23T20:40:22.105Z,43.00
2023-05-23T20:42:49.732Z,43.09
2023-05-23T20:45:16.806Z,43.12
2023-05-23T20:47:43.844Z,43.08
2023-05-23T20:50:15.853Z,43.37
2023-05-23T20:52:43.485Z,43.68
2023-05-23T20:55:10.893Z,43.84
2023-05-23T20:57:38.203Z,43.75
2023-05-23T21:00:10.858Z,43.93
2023-05-23T21:02:38.331Z,44.01
2023-05-23T21:05:06.677Z,44.37
2023-05-23T21:07:35.558Z,44.22
2023-05-23T21:10:03.331Z,44.50
2023-05-23T21:12:30.720Z,44.71
2023-05-23T21:14:57.636Z,44.49
2023-05-23T21:17:24.672Z,44.48
2023-05-23T21:19:51.790Z,44.73
2023-05-23T21:22:18.697Z,44.97
2023-05-23T21:24:46.984Z,44.80
2023-05-23T21:27:13.988Z,45.05
2023-05-23T21:29:40.879Z,45.16
2023-05-23T21:32:07.856Z,45.28
2023-05-23T21:34:34.823Z,44.92
2023-05-23T21:37:01.728Z,45.19
2023-05-23T21:39:39.217Z,45.08
2023-05-23T21:42:15.706Z,45.49
2023-05-23T21:44:42.664Z,45.53
2023-05-23T21:47:09.586Z,45.75
2023-05-23T21:49:37.831Z,45.93
2023-05-23T21:52:05.155Z,45.65
2023-05-23T21:54:32.333Z,45.69
2023-05-23T21:56:59.350Z,45.92
2023-05-23T21:59:27.637Z,46.04
2023-05-23T22:01:54.620Z,46.10
2023-05-23T22:04:21.711Z,46.27
2023-05-23T22:06:48.683Z,46.35
2023-05-23T22:09:15.678Z,46.54
2023-05-23T22:11:43.118Z,46.45
2023-05-23T22:14:10.618Z,46.52
2023-05-23T22:16:39.375Z,46.62
2023-05-23T22:19:07.109Z,46.47
2023-05-23T22:21:34.182Z,47.01
2023-05-23T22:24:01.417Z,47.14
2023-05-23T22:26:28.934Z,46.88
2023-05-23T22:28:56.047Z,46.91
2023-05-23T22:31:23.877Z,47.19
2023-05-23T22:33:52.517Z,46.91
2023-05-23T22:36:19.502Z,46.78
2023-05-23T22:38:46.482Z,46.84
2023-05-23T22:41:14.715Z,46.96
2023-05-23T22:43:41.754Z,46.92
2023-05-23T22:46:08.836Z,46.89
2023-05-23T22:48:35.763Z,47.17
2023-05-23T22:51:05.529Z,46.85
2023-05-23T22:53:32.497Z,47.22
2023-05-23T22:55:59.456Z,47.42
2023-05-23T22:58:26.756Z,47.38
2023-05-23T23:00:53.731Z,47.54
2023-05-23T23:03:20.936Z,47.75
2023-05-23T23:05:48.106Z,47.41
2023-05-23T23:08:16.562Z,47.88
2023-05-23T23:10:44.491Z,48.07
2023-05-23T23:13:13.943Z,47.76
2023-05-23T23:15:42.712Z,47.90
2023-05-23T23:18:09.873Z,48.07
2023-05-23T23:20:38.550Z,47.73
2023-05-23T23:23:05.915Z,48.15
2023-05-23T23:25:36.139Z,48.35
2023-05-23T23:28:03.145Z,48.34
2023-05-23T23:30:30.109Z,48.64
2023-05-23T23:32:57.096Z,48.52
2023-05-23T23:35:24.137Z,48.73
2023-05-23T23:37:51.111Z,48.51
2023-05-23T23:40:18.137Z,48.86
2023-05-23T23:42:46.401Z,48.42
2023-05-23T23:45:13.425Z,48.91
2023-05-23T23:47:41.504Z,49.04
2023-05-23T23:50:09.273Z,49.40
2023-05-23T23:52:38.905Z,49.49
2023-05-23T23:55:06.910Z,48.82
2023-05-23T23:57:33.871Z,48.57
